createdAt,value
2018-05-24T00:00:46.627Z,14.50
2018-05-24T00:03:14.021Z,14.40
2018-05-24T00:05:40.244Z,14.40
2018-05-24T00:08:06.455Z,14.50
2018-05-24T00:10:33.702Z,14.50
2018-05-24T00:13:00.104Z,14.40
2018-05-24T00:15:26.216Z,14.50
2018-05-24T00:17:52.502Z,14.40
2018-05-24T00:20:18.649Z,14.40
2018-05-24T00:22:44.823Z,14.30
2018-05-24T00:25:11.193Z,14.30
2018-05-24T00:27:37.324Z,14.30
2018-05-24T00:30:03.731Z,14.40
2018-05-24T00:32:36.791Z,14.50
2018-05-24T00:35:02.946Z,14.60
2018-05-24T00:37:29.114Z,14.50
2018-05-24T00:39:55.230Z,14.50
2018-05-24T00:42:22.033Z,14.50
2018-05-24T00:44:50.145Z,14.40
2018-05-24T00:47:16.306Z,14.30
2018-05-24T00:49:42.675Z,14.40
2018-05-24T00:52:08.925Z,14.40
2018-05-24T00:54:35.126Z,14.40
2018-05-24T00:57:01.356Z,14.40
2018-05-24T00:59:27.954Z,14.50
2018-05-24T01:01:54.138Z,14.60
2018-05-24T01:04:20.322Z,14.60
2018-05-24T01:06:46.395Z,14.50
2018-05-24T01:09:12.622Z,14.50
2018-05-24T01:11:39.141Z,14.50
2018-05-24T01:14:05.400Z,14.60
2018-05-24T01:16:34.826Z,14.70
2018-05-24T01:19:01.054Z,14.60
2018-05-24T01:21:27.289Z,14.60
2018-05-24T01:23:54.026Z,14.70
2018-05-24T01:26:20.393Z,14.70
2018-05-24T01:28:46.578Z,14.60
2018-05-24T01:31:12.971Z,14.70
2018-05-24T01:33:39.145Z,14.70
2018-05-24T01:36:05.717Z,14.70
2018-05-24T01:38:32.449Z,14.70
2018-05-24T01:40:58.570Z,14.70
2018-05-24T01:43:24.699Z,14.70
2018-05-24T01:45:52.357Z,14.60
2018-05-24T01:48:18.503Z,14.60
2018-05-24T01:50:44.654Z,14.50
2018-05-24T01:53:14.275Z,14.60
2018-05-24T01:55:41.400Z,14.50
2018-05-24T01:58:07.584Z,14.40
2018-05-24T02:00:39.746Z,14.40
2018-05-24T02:03:05.899Z,14.30
2018-05-24T02:05:32.186Z,14.40
2018-05-24T02:07:58.447Z,14.40
2018-05-24T02:10:26.595Z,14.50
2018-05-24T02:12:53.115Z,14.50
2018-05-24T02:15:19.589Z,14.60
2018-05-24T02:17:45.715Z,14.70
2018-05-24T02:20:11.841Z,14.60
2018-05-24T02:22:37.980Z,14.70
2018-05-24T02:25:04.163Z,14.60
2018-05-24T02:27:30.317Z,14.50
2018-05-24T02:30:00.187Z,14.50
2018-05-24T02:32:26.358Z,14.50
2018-05-24T02:34:52.563Z,14.50
2018-05-24T02:37:18.721Z,14.50
2018-05-24T02:39:44.856Z,14.30
2018-05-24T02:42:11.321Z,14.10
2018-05-24T02:44:37.758Z,14.00
2018-05-24T02:47:03.929Z,14.00
2018-05-24T02:49:30.082Z,13.90
2018-05-24T02:51:56.278Z,14.00
2018-05-24T02:54:22.511Z,14.00
2018-05-24T02:56:49.028Z,14.00
2018-05-24T02:59:15.179Z,14.00
2018-05-24T03:01:41.451Z,14.00
2018-05-24T03:04:07.537Z,14.00
2018-05-24T03:06:33.705Z,14.00
2018-05-24T03:08:59.850Z,14.10
2018-05-24T03:11:32.822Z,14.10
2018-05-24T03:14:01.942Z,14.10
2018-05-24T03:16:28.083Z,14.20
2018-05-24T03:18:54.232Z,14.10
2018-05-24T03:21:20.387Z,13.90
2018-05-24T03:23:46.542Z,13.90
2018-05-24T03:26:14.125Z,13.80
2018-05-24T03:28:40.249Z,13.70
2018-05-24T03:31:06.680Z,13.70
2018-05-24T03:33:32.869Z,13.80
2018-05-24T03:35:59.150Z,13.80
2018-05-24T03:38:25.314Z,13.80
2018-05-24T03:40:52.167Z,13.90
2018-05-24T03:43:18.331Z,13.90
2018-05-24T03:45:44.924Z,14.00
2018-05-24T03:48:11.302Z,14.00
2018-05-24T03:50:37.473Z,14.00
2018-05-24T03:53:05.494Z,13.90
2018-05-24T03:55:31.716Z,13.90
2018-05-24T03:57:57.937Z,13.90
2018-05-24T04:00:36.377Z,13.70
2018-05-24T04:03:15.604Z,13.70
2018-05-24T04:05:44.284Z,13.70
2018-05-24T04:08:10.382Z,13.70
2018-05-24T04:10:36.532Z,13.70
2018-05-24T04:13:02.663Z,13.60
2018-05-24T04:15:28.809Z,13.60
2018-05-24T04:17:55.669Z,13.80
2018-05-24T04:20:22.105Z,13.70
2018-05-24T04:22:49.013Z,13.90
2018-05-24T04:25:15.236Z,13.80
2018-05-24T04:27:41.376Z,13.80
2018-05-24T04:30:07.572Z,13.50
2018-05-24T04:32:33.811Z,13.40
2018-05-24T04:35:00.152Z,13.50
2018-05-24T04:37:26.296Z,13.50
2018-05-24T04:39:52.437Z,13.50
2018-05-24T04:42:19.337Z,13.70
2018-05-24T04:44:45.647Z,13.70
2018-05-24T04:47:11.903Z,13.90
2018-05-24T04:49:38.093Z,13.90
2018-05-24T04:52:04.535Z,13.90
2018-05-24T04:54:30.913Z,13.80
2018-05-24T04:56:57.021Z,13.80
2018-05-24T04:59:23.205Z,13.70
2018-05-24T05:01:49.375Z,13.80
2018-05-24T05:04:15.553Z,13.80
2018-05-24T05:06:41.759Z,13.80
2018-05-24T05:09:07.977Z,13.90
2018-05-24T05:11:34.865Z,14.00
2018-05-24T05:14:01.079Z,14.00
2018-05-24T05:16:27.237Z,13.90
2018-05-24T05:18:53.394Z,14.00
2018-05-24T05:21:19.585Z,14.10
2018-05-24T05:23:50.158Z,14.20
2018-05-24T05:26:16.523Z,14.30
2018-05-24T05:28:45.255Z,14.30
2018-05-24T05:31:12.492Z,14.40
2018-05-24T05:33:50.679Z,14.50
2018-05-24T05:36:17.117Z,14.60
2018-05-24T05:38:43.252Z,14.80
2018-05-24T05:41:09.411Z,15.00
2018-05-24T05:43:35.597Z,15.30
2018-05-24T05:46:01.769Z,15.20
2018-05-24T05:48:28.032Z,15.30
2018-05-24T05:50:54.206Z,15.50
2018-05-24T05:53:20.764Z,15.70
2018-05-24T05:55:46.968Z,15.40
2018-05-24T05:58:13.111Z,15.30
2018-05-24T06:00:39.260Z,15.30
2018-05-24T06:03:06.078Z,15.40
2018-05-24T06:05:32.249Z,15.50
2018-05-24T06:07:58.465Z,15.70
2018-05-24T06:10:24.667Z,16.00
2018-05-24T06:15:23.111Z,16.40
2018-05-24T06:17:49.222Z,16.70
2018-05-24T06:20:15.360Z,16.90
2018-05-24T06:22:41.491Z,17.00
2018-05-24T06:25:10.715Z,16.90
2018-05-24T06:27:36.908Z,16.80
2018-05-24T06:30:03.148Z,16.90
2018-05-24T06:32:29.582Z,17.00
2018-05-24T06:34:55.734Z,17.00
2018-05-24T06:37:21.835Z,16.80
2018-05-24T06:39:48.180Z,16.80
2018-05-24T06:42:15.449Z,17.00
2018-05-24T06:44:41.597Z,17.00
2018-05-24T06:47:08.789Z,17.00
2018-05-24T06:49:34.918Z,17.20
2018-05-24T06:52:01.132Z,17.50
2018-05-24T06:54:33.512Z,17.80
2018-05-24T06:56:59.743Z,18.00
2018-05-24T06:59:25.991Z,18.40
2018-05-24T07:01:52.101Z,18.70
2018-05-24T07:04:18.408Z,18.80
2018-05-24T07:06:44.546Z,19.00
2018-05-24T07:09:10.659Z,19.00
2018-05-24T07:11:36.878Z,18.80
2018-05-24T07:14:03.027Z,18.50
2018-05-24T07:16:29.184Z,18.10
2018-05-24T07:18:55.417Z,18.00
2018-05-24T07:21:21.562Z,17.80
2018-05-24T07:23:48.088Z,17.70
2018-05-24T07:26:15.078Z,17.40
2018-05-24T07:28:41.244Z,17.40
2018-05-24T07:31:13.258Z,17.40
2018-05-24T07:33:39.407Z,17.40
2018-05-24T07:36:05.525Z,17.40
2018-05-24T07:38:31.592Z,17.50
2018-05-24T07:40:57.874Z,17.40
2018-05-24T07:43:24.113Z,17.20
2018-05-24T07:45:50.282Z,17.30
2018-05-24T07:48:16.501Z,17.30
2018-05-24T07:50:42.622Z,17.50
2018-05-24T07:53:08.702Z,17.60
2018-05-24T07:55:35.063Z,17.80
2018-05-24T07:58:01.476Z,17.90
2018-05-24T08:00:27.604Z,18.00
2018-05-24T08:02:53.781Z,18.20
2018-05-24T08:05:20.139Z,18.30
2018-05-24T08:07:46.268Z,18.20
2018-05-24T08:10:12.399Z,18.40
2018-05-24T08:12:38.543Z,18.90
2018-05-24T08:15:04.649Z,19.10
2018-05-24T08:17:30.821Z,19.30
2018-05-24T08:19:57.023Z,19.00
2018-05-24T08:22:23.409Z,18.90
2018-05-24T08:24:50.219Z,18.60
2018-05-24T08:27:16.373Z,18.60
2018-05-24T08:29:42.539Z,18.40
2018-05-24T08:32:08.678Z,18.20
2018-05-24T08:34:34.795Z,18.00
2018-05-24T08:37:00.878Z,17.70
2018-05-24T08:39:26.982Z,17.70
2018-05-24T08:41:53.100Z,17.70
2018-05-24T08:44:19.237Z,17.70
2018-05-24T08:46:45.358Z,17.70
2018-05-24T08:49:11.521Z,17.90
2018-05-24T08:51:37.700Z,18.10
2018-05-24T08:54:04.064Z,18.50
2018-05-24T08:56:30.977Z,19.50
2018-05-24T08:58:57.925Z,19.80
2018-05-24T09:01:24.922Z,20.10
2018-05-24T09:03:50.942Z,20.00
2018-05-24T09:06:17.076Z,20.20
2018-05-24T09:08:43.162Z,20.40
2018-05-24T09:11:09.384Z,20.30
2018-05-24T09:13:35.500Z,20.10
2018-05-24T09:16:02.467Z,19.50
2018-05-24T09:18:28.573Z,19.50
2018-05-24T09:20:54.694Z,19.40
2018-05-24T09:23:20.821Z,19.70
2018-05-24T09:25:46.939Z,19.60
2018-05-24T09:28:13.202Z,19.70
2018-05-24T09:30:39.433Z,19.50
2018-05-24T09:33:05.692Z,19.60
2018-05-24T09:35:31.829Z,19.60
2018-05-24T09:37:57.957Z,19.60
2018-05-24T09:40:24.124Z,19.30
2018-05-24T09:42:50.372Z,19.10
2018-05-24T09:45:16.510Z,18.90
2018-05-24T09:47:42.651Z,19.10
2018-05-24T09:50:08.970Z,19.50
2018-05-24T09:52:35.161Z,19.90
2018-05-24T09:55:01.248Z,20.20
2018-05-24T09:57:27.422Z,20.30
2018-05-24T09:59:53.580Z,20.20
2018-05-24T10:02:19.681Z,20.40
2018-05-24T10:04:46.074Z,20.60
2018-05-24T10:07:12.078Z,20.30
2018-05-24T10:09:39.151Z,20.30
2018-05-24T10:12:05.270Z,20.30
2018-05-24T10:14:31.385Z,20.20
2018-05-24T10:16:58.598Z,20.10
2018-05-24T10:19:24.770Z,20.00
2018-05-24T10:21:51.245Z,20.10
2018-05-24T10:24:17.441Z,20.10
2018-05-24T10:26:43.572Z,19.80
2018-05-24T10:29:09.803Z,19.60
2018-05-24T10:31:36.026Z,19.50
2018-05-24T10:34:02.187Z,19.50
2018-05-24T10:36:28.550Z,19.50
2018-05-24T10:38:55.639Z,19.60
2018-05-24T10:41:21.823Z,19.60
2018-05-24T10:43:48.667Z,19.80
2018-05-24T10:46:14.863Z,19.80
2018-05-24T10:48:41.022Z,19.90
2018-05-24T10:51:07.933Z,20.10
2018-05-24T10:53:34.101Z,20.00
2018-05-24T10:56:00.468Z,20.10
2018-05-24T10:58:26.548Z,19.90
2018-05-24T11:00:53.607Z,20.00
2018-05-24T11:03:20.067Z,19.90
2018-05-24T11:05:46.189Z,19.90
2018-05-24T11:08:13.391Z,20.00
2018-05-24T11:10:39.564Z,20.20
2018-05-24T11:13:05.841Z,20.20
2018-05-24T11:15:32.057Z,20.20
2018-05-24T11:17:58.353Z,20.20
2018-05-24T11:20:24.785Z,20.30
2018-05-24T11:22:50.977Z,20.40
2018-05-24T11:25:17.979Z,21.30
2018-05-24T11:27:44.184Z,21.20
2018-05-24T11:30:10.375Z,21.60
2018-05-24T11:32:37.236Z,21.20
2018-05-24T11:35:03.479Z,21.10
2018-05-24T11:37:29.766Z,21.60
2018-05-24T11:39:56.829Z,22.10
2018-05-24T11:42:22.962Z,22.20
2018-05-24T11:44:49.726Z,22.00
2018-05-24T11:47:16.632Z,21.80
2018-05-24T11:49:42.809Z,21.70
2018-05-24T11:52:09.052Z,21.80
2018-05-24T11:54:35.245Z,21.60
2018-05-24T11:57:01.626Z,21.20
2018-05-24T11:59:27.818Z,21.40
2018-05-24T12:01:54.186Z,21.40
2018-05-24T12:04:21.004Z,21.30
2018-05-24T12:06:47.244Z,21.30
2018-05-24T12:09:13.427Z,21.10
2018-05-24T12:11:39.562Z,21.10
2018-05-24T12:14:05.800Z,21.20
2018-05-24T12:16:31.933Z,21.30
2018-05-24T12:18:58.035Z,21.30
2018-05-24T12:21:24.267Z,21.40
2018-05-24T12:23:50.427Z,21.60
2018-05-24T12:26:16.589Z,21.80
2018-05-24T12:28:43.571Z,21.50
2018-05-24T12:31:10.152Z,21.50
2018-05-24T12:33:36.326Z,21.00
2018-05-24T12:36:02.470Z,21.00
2018-05-24T12:38:28.984Z,21.00
2018-05-24T12:40:55.721Z,21.10
2018-05-24T12:43:21.878Z,21.00
2018-05-24T12:45:47.993Z,21.10
2018-05-24T12:48:14.280Z,21.30
2018-05-24T12:50:40.448Z,21.60
2018-05-24T12:53:06.574Z,22.00
2018-05-24T12:55:32.893Z,22.20
2018-05-24T12:57:59.062Z,22.20
2018-05-24T13:00:25.365Z,22.40
2018-05-24T13:02:53.207Z,22.40
2018-05-24T13:05:19.435Z,22.60
2018-05-24T13:07:45.622Z,22.60
2018-05-24T13:10:11.823Z,22.60
2018-05-24T13:12:38.124Z,22.60
2018-05-24T13:15:04.494Z,22.40
2018-05-24T13:17:30.742Z,22.30
2018-05-24T13:19:56.914Z,22.10
2018-05-24T13:22:23.069Z,22.10
2018-05-24T13:24:49.218Z,22.00
2018-05-24T13:27:15.449Z,22.10
2018-05-24T13:29:41.677Z,22.10
2018-05-24T13:32:07.916Z,22.20
2018-05-24T13:34:34.172Z,22.30
2018-05-24T13:37:00.292Z,22.40
2018-05-24T13:39:26.488Z,22.00
2018-05-24T13:41:52.657Z,21.90
2018-05-24T13:44:18.771Z,22.10
2018-05-24T13:46:44.961Z,22.20
2018-05-24T13:49:11.131Z,22.30
2018-05-24T13:51:37.232Z,21.80
2018-05-24T13:54:03.340Z,21.70
2018-05-24T13:56:29.445Z,22.10
2018-05-24T13:58:55.541Z,22.30
2018-05-24T14:01:21.929Z,22.30
2018-05-24T14:03:48.130Z,22.30
2018-05-24T14:06:14.312Z,22.40
2018-05-24T14:08:40.458Z,22.40
2018-05-24T14:11:06.636Z,22.50
2018-05-24T14:13:32.880Z,22.80
2018-05-24T14:15:59.025Z,22.80
2018-05-24T14:18:25.786Z,22.60
2018-05-24T14:20:51.904Z,22.30
2018-05-24T14:23:18.117Z,22.30
2018-05-24T14:25:45.501Z,22.60
2018-05-24T14:28:11.594Z,22.40
2018-05-24T14:30:38.033Z,22.50
2018-05-24T14:33:04.192Z,22.60
2018-05-24T14:35:30.280Z,23.00
2018-05-24T14:37:56.512Z,23.10
2018-05-24T14:40:22.692Z,23.30
2018-05-24T14:42:49.609Z,23.40
2018-05-24T14:45:15.780Z,23.40
2018-05-24T14:47:41.928Z,23.40
2018-05-24T14:50:08.070Z,23.20
2018-05-24T14:52:34.383Z,23.20
2018-05-24T14:55:00.678Z,23.20
2018-05-24T14:57:26.975Z,23.20
2018-05-24T14:59:53.174Z,23.10
2018-05-24T15:02:19.333Z,23.30
2018-05-24T15:04:45.428Z,23.30
2018-05-24T15:07:11.737Z,23.40
2018-05-24T15:09:37.853Z,23.50
2018-05-24T15:12:04.075Z,23.50
2018-05-24T15:14:30.378Z,23.60
2018-05-24T15:16:56.621Z,23.70
2018-05-24T15:19:22.957Z,23.60
2018-05-24T15:21:49.130Z,23.50
2018-05-24T15:24:15.763Z,23.50
2018-05-24T15:26:41.941Z,23.40
2018-05-24T15:29:08.042Z,23.50
2018-05-24T15:31:34.448Z,23.40
2018-05-24T15:34:00.675Z,23.50
2018-05-24T15:36:26.905Z,23.50
2018-05-24T15:38:53.067Z,23.50
2018-05-24T15:41:19.255Z,23.40
2018-05-24T15:43:45.708Z,23.20
2018-05-24T15:46:11.926Z,23.30
2018-05-24T15:48:38.097Z,23.30
2018-05-24T15:51:04.319Z,23.00
2018-05-24T15:53:30.502Z,23.00
2018-05-24T15:55:56.698Z,23.00
2018-05-24T15:58:22.941Z,23.10
2018-05-24T16:00:49.095Z,23.10
2018-05-24T16:03:15.814Z,23.20
2018-05-24T16:05:42.138Z,23.30
2018-05-24T16:08:08.364Z,23.30
2018-05-24T16:10:34.507Z,23.40
2018-05-24T16:13:00.855Z,23.40
2018-05-24T16:15:27.255Z,23.50
2018-05-24T16:17:53.495Z,23.50
2018-05-24T16:20:19.830Z,23.50
2018-05-24T16:22:47.448Z,23.40
2018-05-24T16:25:13.897Z,23.20
2018-05-24T16:27:40.257Z,23.20
2018-05-24T16:30:06.570Z,23.30
2018-05-24T16:32:32.709Z,23.40
2018-05-24T16:34:58.856Z,23.40
2018-05-24T16:37:25.883Z,23.20
2018-05-24T16:39:52.478Z,23.20
2018-05-24T16:42:25.528Z,23.20
2018-05-24T16:44:52.173Z,23.20
2018-05-24T16:47:18.615Z,23.20
2018-05-24T16:49:44.863Z,23.20
2018-05-24T16:52:18.277Z,23.30
2018-05-24T16:54:45.257Z,23.40
2018-05-24T16:57:11.802Z,23.40
2018-05-24T16:59:41.105Z,23.10
2018-05-24T17:02:07.387Z,23.10
2018-05-24T17:04:33.811Z,22.90
2018-05-24T17:06:59.978Z,22.80
2018-05-24T17:09:26.125Z,22.70
2018-05-24T17:11:52.775Z,22.50
2018-05-24T17:14:19.345Z,22.50
2018-05-24T17:16:45.817Z,22.70
2018-05-24T17:19:12.998Z,23.00
2018-05-24T17:21:42.967Z,23.00
2018-05-24T17:24:10.657Z,23.20
2018-05-24T17:26:44.511Z,23.10
2018-05-24T17:29:11.072Z,23.10
2018-05-24T17:31:37.294Z,23.00
2018-05-24T17:34:03.516Z,22.90
2018-05-24T17:36:32.436Z,22.90
2018-05-24T17:39:02.985Z,22.60
2018-05-24T17:41:29.444Z,22.60
2018-05-24T17:43:56.239Z,22.70
2018-05-24T17:46:26.177Z,22.80
2018-05-24T17:49:08.143Z,22.90
2018-05-24T17:51:53.581Z,22.90
2018-05-24T17:54:23.136Z,23.00
2018-05-24T17:56:53.344Z,23.00
2018-05-24T17:59:25.364Z,23.20
2018-05-24T18:01:52.013Z,23.20
2018-05-24T18:04:21.083Z,23.30
2018-05-24T18:09:47.302Z,23.20
2018-05-24T18:12:15.259Z,22.90
2018-05-24T18:14:41.650Z,22.80
2018-05-24T18:17:08.104Z,22.80
2018-05-24T18:19:35.326Z,22.90
2018-05-24T18:22:01.665Z,22.80
2018-05-24T18:24:27.908Z,22.90
2018-05-24T18:26:54.183Z,22.70
2018-05-24T18:29:28.560Z,22.50
2018-05-24T18:31:54.831Z,22.30
2018-05-24T18:34:28.069Z,22.20
2018-05-24T18:39:42.694Z,22.10
2018-05-24T18:42:13.562Z,22.00
2018-05-24T18:44:40.850Z,21.90
2018-05-24T18:47:16.553Z,21.80
2018-05-24T18:49:50.838Z,21.70
2018-05-24T18:52:17.254Z,21.70
2018-05-24T18:55:08.193Z,21.50
2018-05-24T18:57:34.754Z,21.50
2018-05-24T19:00:04.667Z,21.10
2018-05-24T19:02:37.767Z,21.10
2018-05-24T19:05:08.307Z,21.00
2018-05-24T19:07:36.114Z,20.90
2018-05-24T19:10:15.901Z,20.90
2018-05-24T19:12:43.345Z,20.80
2018-05-24T19:15:10.149Z,20.90
2018-05-24T19:17:38.472Z,20.90
2018-05-24T19:20:05.789Z,20.80
2018-05-24T19:22:32.360Z,20.80
2018-05-24T19:24:59.115Z,20.80
2018-05-24T19:27:28.250Z,20.70
2018-05-24T19:29:54.509Z,20.60
2018-05-24T19:32:20.847Z,20.60
2018-05-24T19:34:47.342Z,20.50
2018-05-24T19:37:13.633Z,20.40
2018-05-24T19:39:40.827Z,20.30
2018-05-24T19:42:07.304Z,20.20
2018-05-24T19:44:33.518Z,20.10
2018-05-24T19:47:00.033Z,20.00
2018-05-24T19:49:26.330Z,20.10
2018-05-24T19:51:52.617Z,20.00
2018-05-24T19:54:19.073Z,19.80
2018-05-24T19:56:45.193Z,19.70
2018-05-24T19:59:20.013Z,19.70
2018-05-24T20:01:46.591Z,19.60
2018-05-24T20:04:28.985Z,19.60
2018-05-24T20:07:01.507Z,19.50
2018-05-24T20:12:25.280Z,19.50
2018-05-24T20:14:53.861Z,19.50
2018-05-24T20:17:20.978Z,19.10
2018-05-24T20:19:47.666Z,19.10
2018-05-24T20:22:14.577Z,19.00
2018-05-24T20:24:41.539Z,19.10
2018-05-24T20:27:14.219Z,18.90
2018-05-24T20:29:57.325Z,18.90
2018-05-24T20:32:24.533Z,18.40
2018-05-24T20:34:51.338Z,18.40
2018-05-24T20:37:18.119Z,18.40
2018-05-24T20:39:44.540Z,18.30
2018-05-24T20:42:14.527Z,18.30
2018-05-24T20:44:41.335Z,18.30
2018-05-24T20:47:07.710Z,18.50
2018-05-24T20:49:33.923Z,18.50
2018-05-24T20:52:00.366Z,18.60
2018-05-24T20:54:37.584Z,18.70
2018-05-24T20:57:04.006Z,18.70
2018-05-24T20:59:30.519Z,18.70
2018-05-24T21:01:57.469Z,18.70
2018-05-24T21:04:23.789Z,18.60
2018-05-24T21:06:50.130Z,18.60
2018-05-24T21:09:18.795Z,18.40
2018-05-24T21:11:45.994Z,18.40
2018-05-24T21:14:12.191Z,18.40
2018-05-24T21:16:42.727Z,18.30
2018-05-24T21:19:09.040Z,18.20
2018-05-24T21:21:39.367Z,18.20
2018-05-24T21:24:05.908Z,18.10
2018-05-24T21:26:32.370Z,18.20
2018-05-24T21:28:58.785Z,18.00
2018-05-24T21:31:25.258Z,18.10
2018-05-24T21:33:52.927Z,18.00
2018-05-24T21:36:20.020Z,18.00
2018-05-24T21:38:46.242Z,18.00
2018-05-24T21:41:12.480Z,18.10
2018-05-24T21:43:45.330Z,18.10
2018-05-24T21:46:11.618Z,18.10
2018-05-24T21:48:37.805Z,18.10
2018-05-24T21:51:04.460Z,17.90
2018-05-24T21:53:30.819Z,17.90
2018-05-24T21:55:57.766Z,17.90
2018-05-24T21:58:24.030Z,17.90
2018-05-24T22:00:50.316Z,17.80
2018-05-24T22:03:17.436Z,17.60
2018-05-24T22:05:44.444Z,17.30
2018-05-24T22:10:43.748Z,17.20
2018-05-24T22:13:10.031Z,17.30
2018-05-24T22:15:36.971Z,17.30
2018-05-24T22:18:03.288Z,17.40
2018-05-24T22:20:29.665Z,17.40
2018-05-24T22:25:35.767Z,17.40
2018-05-24T22:28:02.274Z,17.40
2018-05-24T22:30:34.117Z,17.40
2018-05-24T22:33:12.321Z,17.30
2018-05-24T22:38:51.253Z,17.30
2018-05-24T22:41:28.879Z,17.30
2018-05-24T22:46:46.290Z,17.30
2018-05-24T22:49:12.767Z,17.30
2018-05-24T22:55:20.863Z,17.20
2018-05-24T23:01:09.178Z,17.20
2018-05-24T23:03:35.777Z,16.90
2018-05-24T23:06:02.822Z,16.50
2018-05-24T23:11:14.106Z,16.30
2018-05-24T23:16:30.065Z,16.30
2018-05-24T23:18:56.358Z,16.30
2018-05-24T23:21:24.746Z,16.30
2018-05-24T23:23:53.504Z,16.30
2018-05-24T23:26:20.817Z,16.20
2018-05-24T23:28:57.480Z,16.10
2018-05-24T23:31:23.757Z,16.00
2018-05-24T23:33:50.075Z,15.90
2018-05-24T23:36:21.023Z,15.90
2018-05-24T23:38:47.667Z,15.80
2018-05-24T23:41:14.393Z,15.70
2018-05-24T23:43:40.783Z,15.70
2018-05-24T23:46:07.781Z,15.70
2018-05-24T23:48:35.329Z,15.60
2018-05-24T23:51:01.779Z,15.60
2018-05-24T23:53:28.206Z,15.60
2018-05-24T23:55:55.044Z,15.70
2018-05-24T23:58:21.486Z,15.80
